Time;durP1;ratioP1;P1;durP2;ratioP2;P2;SDS_P1;SDS_P2;PMS_P1;PMS_P2;Temp;Humidity;BMP_temperature;BMP_pressure;BME280_temperature;BME280_humidity;BME280_pressure;Samples;Min_cycle;Max_cycle;Signal;HPM_P1;HPM_P2
2022/08/20 00:00:12;;;;;;;;;;;26.60;89.90;;;;;;5134781;27;19930;-60
2022/08/20 00:02:41;;;;;;;;;;;26.70;89.90;;;;;;5134556;27;19924;-60
2022/08/20 00:05:07;;;;;;;;;;;26.60;88.80;;;;;;5129067;27;19930;-61
2022/08/20 00:07:33;;;;;;;;;;;26.60;89.90;;;;;;5133544;27;19923;-60
2022/08/20 00:09:58;;;;;;;;;;;26.60;89.60;;;;;;5134902;28;19924;-62
2022/08/20 00:12:24;;;;;;;;;;;26.50;89.90;;;;;;5126946;28;20022;-60
2022/08/20 00:14:49;;;;;;;;;;;26.70;89.80;;;;;;5129754;27;19927;-60
2022/08/20 00:17:15;;;;;;;;;;;26.70;90.00;;;;;;5114915;28;20300;-61
2022/08/20 00:19:41;;;;;;;;;;;26.50;89.60;;;;;;5114460;28;20069;-60
2022/08/20 00:22:06;;;;;;;;;;;26.40;89.70;;;;;;5113981;28;19924;-61
2022/08/20 00:24:33;;;;;;;;;;;26.40;89.70;;;;;;5113869;28;19924;-60
2022/08/20 00:26:59;;;;;;;;;;;26.60;89.70;;;;;;5117545;27;20274;-60
2022/08/20 00:29:24;;;;;;;;;;;26.60;89.80;;;;;;5134092;28;19927;-61
2022/08/20 00:31:50;;;;;;;;;;;26.60;89.80;;;;;;5132730;28;20027;-60
2022/08/20 00:34:16;;;;;;;;;;;26.50;89.80;;;;;;5134809;28;19925;-60
2022/08/20 00:36:41;;;;;;;;;;;26.70;89.70;;;;;;5125453;27;19949;-60
2022/08/20 00:39:07;;;;;;;;;;;26.50;89.70;;;;;;5130958;28;19924;-60
2022/08/20 00:41:33;;;;;;;;;;;26.50;89.30;;;;;;5134299;28;19923;-62
2022/08/20 00:44:09;;;;;;;;;;;26.40;89.60;;;;;;5134580;27;19938;-61
2022/08/20 00:46:35;;;;;;;;;;;26.60;88.60;;;;;;5115517;27;19927;-60
2022/08/20 00:49:04;;;;;;;;;;;26.60;89.90;;;;;;5123365;27;19997;-60
2022/08/20 00:51:30;;;;;;;;;;;26.50;89.70;;;;;;5113800;28;19930;-60
2022/08/20 00:53:57;;;;;;;;;;;26.70;89.70;;;;;;5113918;28;20015;-60
2022/08/20 00:56:22;;;;;;;;;;;26.30;89.70;;;;;;5113734;28;19938;-60
2022/08/20 00:58:49;;;;;;;;;;;26.50;89.70;;;;;;5118495;27;19919;-60
2022/08/20 01:01:15;;;;;;;;;;;26.80;89.90;;;;;;5114082;28;19977;-60
2022/08/20 01:03:41;;;;;;;;;;;26.60;89.80;;;;;;5116813;27;19927;-60
2022/08/20 01:06:08;;;;;;;;;;;26.60;89.30;;;;;;5134476;28;20298;-60
2022/08/20 01:08:33;;;;;;;;;;;26.50;89.60;;;;;;5125829;27;19963;-60
2022/08/20 01:11:08;;;;;;;;;;;26.40;89.50;;;;;;5133253;27;20396;-60
2022/08/20 01:13:35;;;;;;;;;;;26.50;88.60;;;;;;5137804;27;19928;-60
2022/08/20 01:16:02;;;;;;;;;;;26.40;89.60;;;;;;5136147;27;19948;-60
2022/08/20 01:18:27;;;;;;;;;;;26.50;89.50;;;;;;5133898;27;19927;-60
2022/08/20 01:20:54;;;;;;;;;;;26.50;89.50;;;;;;5118336;27;19924;-60
2022/08/20 01:23:35;;;;;;;;;;;26.50;89.70;;;;;;5099006;28;19924;-61
2022/08/20 01:26:04;;;;;;;;;;;26.50;88.40;;;;;;5117370;28;19924;-60
2022/08/20 01:28:34;;;;;;;;;;;26.70;88.60;;;;;;5117021;28;19953;-60
2022/08/20 01:31:01;;;;;;;;;;;26.40;89.70;;;;;;5124058;27;20013;-60
2022/08/20 01:33:27;;;;;;;;;;;26.50;89.70;;;;;;5124831;27;19920;-60
2022/08/20 01:35:53;;;;;;;;;;;26.40;89.30;;;;;;5127325;27;19946;-60
2022/08/20 01:38:18;;;;;;;;;;;26.50;89.80;;;;;;5117135;28;19920;-60
2022/08/20 01:40:59;;;;;;;;;;;26.50;89.40;;;;;;5118943;27;19928;-61
2022/08/20 01:43:25;;;;;;;;;;;26.40;88.20;;;;;;5147978;27;19923;-61
2022/08/20 01:45:51;;;;;;;;;;;26.40;89.40;;;;;;5137435;27;19924;-60
2022/08/20 01:48:17;;;;;;;;;;;26.30;89.40;;;;;;5137495;27;19927;-60
2022/08/20 01:50:43;;;;;;;;;;;26.50;89.40;;;;;;5133466;27;19932;-60
2022/08/20 01:53:27;;;;;;;;;;;26.50;89.80;;;;;;5118026;27;20356;-60
2022/08/20 01:55:53;;;;;;;;;;;26.20;88.20;;;;;;5132399;27;20006;-61
2022/08/20 01:58:18;;;;;;;;;;;26.30;89.50;;;;;;5117810;27;19982;-60
2022/08/20 02:00:44;;;;;;;;;;;26.40;89.50;;;;;;5116836;27;19932;-61
2022/08/20 02:03:10;;;;;;;;;;;26.20;89.30;;;;;;5131818;27;19924;-60
2022/08/20 02:05:35;;;;;;;;;;;26.30;89.20;;;;;;5137191;27;20368;-60
2022/08/20 02:08:01;;;;;;;;;;;26.60;89.70;;;;;;5152887;27;20441;-60
2022/08/20 02:10:27;;;;;;;;;;;26.50;89.40;;;;;;5126411;27;19957;-60
2022/08/20 02:12:53;;;;;;;;;;;26.30;89.40;;;;;;5126184;27;20031;-60
2022/08/20 02:15:19;;;;;;;;;;;26.20;89.20;;;;;;5130473;27;19975;-60
2022/08/20 02:17:44;;;;;;;;;;;26.40;89.50;;;;;;5116390;28;19997;-60
2022/08/20 02:20:15;;;;;;;;;;;26.30;89.30;;;;;;5116330;28;19924;-60
2022/08/20 02:22:54;;;;;;;;;;;26.40;88.30;;;;;;5082851;27;20292;-60
2022/08/20 02:25:21;;;;;;;;;;;26.30;88.10;;;;;;5128529;27;19974;-60
2022/08/20 02:27:47;;;;;;;;;;;26.50;89.70;;;;;;5121507;27;20304;-60
2022/08/20 02:30:24;;;;;;;;;;;26.50;89.60;;;;;;5115848;28;19924;-60
2022/08/20 02:32:50;;;;;;;;;;;26.50;89.60;;;;;;5116673;27;19928;-60
2022/08/20 02:35:15;;;;;;;;;;;26.30;89.10;;;;;;5120357;27;20281;-59
2022/08/20 02:37:41;;;;;;;;;;;26.00;89.10;;;;;;5115741;28;20056;-60
2022/08/20 02:40:08;;;;;;;;;;;26.10;89.10;;;;;;5115960;28;20284;-60
2022/08/20 02:42:34;;;;;;;;;;;26.40;89.10;;;;;;5116631;27;20288;-60
2022/08/20 02:44:59;;;;;;;;;;;26.10;89.20;;;;;;5120547;27;20327;-60
2022/08/20 02:47:26;;;;;;;;;;;26.20;89.30;;;;;;5116655;27;19973;-60
2022/08/20 02:49:53;;;;;;;;;;;26.40;89.10;;;;;;5115443;28;19930;-60
2022/08/20 02:52:18;;;;;;;;;;;26.40;89.60;;;;;;5115411;28;19923;-60
2022/08/20 02:54:44;;;;;;;;;;;26.50;89.60;;;;;;5117513;27;19923;-60
2022/08/20 02:57:13;;;;;;;;;;;26.30;89.20;;;;;;5125864;27;20281;-61
2022/08/20 02:59:39;;;;;;;;;;;26.50;88.20;;;;;;5136102;27;20006;-60
2022/08/20 03:02:05;;;;;;;;;;;26.30;89.30;;;;;;5118194;27;19966;-60
2022/08/20 03:04:30;;;;;;;;;;;26.60;89.40;;;;;;5115236;27;19923;-60
2022/08/20 03:06:56;;;;;;;;;;;26.10;88.90;;;;;;5120392;27;19948;-60
2022/08/20 03:09:22;;;;;;;;;;;26.50;89.50;;;;;;5135572;27;19924;-60
2022/08/20 03:11:48;;;;;;;;;;;26.10;89.00;;;;;;5135821;27;19924;-60
2022/08/20 03:14:13;;;;;;;;;;;26.10;88.90;;;;;;5135520;27;20032;-60
2022/08/20 03:16:39;;;;;;;;;;;26.10;88.80;;;;;;5109156;28;19930;-60
2022/08/20 03:19:04;;;;;;;;;;;26.40;89.30;;;;;;5116318;27;19927;-60
2022/08/20 03:21:31;;;;;;;;;;;26.10;88.90;;;;;;5114732;28;19924;-59
2022/08/20 03:23:56;;;;;;;;;;;26.20;89.10;;;;;;5114978;28;19993;-60
2022/08/20 03:26:22;;;;;;;;;;;26.10;88.90;;;;;;5115184;27;19923;-60
2022/08/20 03:28:47;;;;;;;;;;;25.70;88.70;;;;;;5121961;27;19923;-60
2022/08/20 03:31:14;;;;;;;;;;;26.00;88.80;;;;;;5133417;27;19931;-60
2022/08/20 03:33:39;;;;;;;;;;;26.20;89.20;;;;;;5134780;27;19923;-60
2022/08/20 03:36:05;;;;;;;;;;;26.10;88.90;;;;;;5137260;27;19923;-60
2022/08/20 03:38:31;;;;;;;;;;;26.30;89.00;;;;;;5122642;27;19931;-60
2022/08/20 03:40:56;;;;;;;;;;;26.10;88.90;;;;;;5134146;27;19923;-60
2022/08/20 03:43:23;;;;;;;;;;;26.10;88.90;;;;;;5135785;27;19923;-60
2022/08/20 03:45:49;;;;;;;;;;;26.20;89.00;;;;;;5135839;27;19924;-60
2022/08/20 03:48:15;;;;;;;;;;;26.10;89.00;;;;;;5130336;27;19946;-60
2022/08/20 03:50:41;;;;;;;;;;;26.00;89.10;;;;;;5126200;27;20291;-60
2022/08/20 03:53:08;;;;;;;;;;;26.30;89.00;;;;;;5116828;27;20396;-60
2022/08/20 03:55:34;;;;;;;;;;;26.30;89.20;;;;;;5114707;28;20269;-60
2022/08/20 03:58:01;;;;;;;;;;;25.80;88.60;;;;;;5115228;28;19932;-60
2022/08/20 04:00:27;;;;;;;;;;;26.20;89.10;;;;;;5122449;27;19977;-60
2022/08/20 04:02:56;;;;;;;;;;;26.00;89.00;;;;;;5114128;28;19924;-60
2022/08/20 04:05:22;;;;;;;;;;;26.10;88.70;;;;;;5114583;28;20003;-60
2022/08/20 04:07:49;;;;;;;;;;;25.90;88.80;;;;;;5124846;27;19923;-60
2022/08/20 04:10:15;;;;;;;;;;;25.90;88.60;;;;;;5118341;27;19977;-60
2022/08/20 04:12:40;;;;;;;;;;;25.90;88.70;;;;;;5130154;28;19923;-60
2022/08/20 04:15:07;;;;;;;;;;;26.00;88.50;;;;;;5131245;28;19971;-60
2022/08/20 04:17:33;;;;;;;;;;;26.00;88.50;;;;;;5114442;28;19923;-60
2022/08/20 04:20:01;;;;;;;;;;;26.10;88.60;;;;;;5116348;27;19924;-60
2022/08/20 04:22:26;;;;;;;;;;;26.10;88.90;;;;;;5114013;28;19976;-60
2022/08/20 04:24:52;;;;;;;;;;;26.00;88.40;;;;;;5119737;28;19927;-66
2022/08/20 04:27:20;;;;;;;;;;;26.00;88.60;;;;;;5130675;28;19927;-61
2022/08/20 04:29:45;;;;;;;;;;;26.00;88.60;;;;;;5134578;28;20289;-60
2022/08/20 04:32:11;;;;;;;;;;;25.80;88.50;;;;;;5126546;27;19919;-60
2022/08/20 04:34:37;;;;;;;;;;;26.10;88.60;;;;;;5134809;28;20353;-61
2022/08/20 04:37:03;;;;;;;;;;;25.90;88.80;;;;;;5132170;28;19923;-59
2022/08/20 04:39:28;;;;;;;;;;;26.00;88.80;;;;;;5120715;27;20014;-60
2022/08/20 04:41:54;;;;;;;;;;;25.90;88.50;;;;;;5115564;27;19923;-60
2022/08/20 04:44:21;;;;;;;;;;;26.20;88.70;;;;;;5150246;27;19930;-60
2022/08/20 04:46:47;;;;;;;;;;;26.10;88.80;;;;;;5136124;27;19931;-60
2022/08/20 04:49:12;;;;;;;;;;;26.20;88.90;;;;;;5138606;27;19923;-60
2022/08/20 04:51:38;;;;;;;;;;;25.90;88.50;;;;;;5136859;27;20397;-61
2022/08/20 04:54:04;;;;;;;;;;;26.10;88.90;;;;;;5115796;27;19974;-60
2022/08/20 04:56:30;;;;;;;;;;;26.00;88.70;;;;;;5136783;27;20068;-60
2022/08/20 04:58:56;;;;;;;;;;;25.80;88.80;;;;;;5126034;27;19923;-60
2022/08/20 05:01:22;;;;;;;;;;;26.00;88.90;;;;;;5117975;27;19939;-60
2022/08/20 05:03:48;;;;;;;;;;;26.10;88.70;;;;;;5119898;27;19923;-61
2022/08/20 05:06:15;;;;;;;;;;;25.90;88.30;;;;;;5117329;28;19982;-60
2022/08/20 05:08:41;;;;;;;;;;;26.00;88.70;;;;;;5117736;28;19946;-60
2022/08/20 05:11:08;;;;;;;;;;;26.10;88.60;;;;;;5118199;27;20022;-60
2022/08/20 05:13:33;;;;;;;;;;;25.80;88.40;;;;;;5119390;27;19980;-61
2022/08/20 05:16:00;;;;;;;;;;;26.10;88.50;;;;;;5124912;27;19927;-61
2022/08/20 05:18:26;;;;;;;;;;;25.90;88.20;;;;;;5130989;27;20297;-60
2022/08/20 05:20:57;;;;;;;;;;;26.20;88.50;;;;;;5135770;27;19923;-60
2022/08/20 05:23:22;;;;;;;;;;;25.90;87.10;;;;;;5123646;27;19984;-61
2022/08/20 05:25:50;;;;;;;;;;;26.10;88.30;;;;;;5115200;27;19924;-60
2022/08/20 05:28:18;;;;;;;;;;;25.80;88.30;;;;;;5137631;27;20293;-60
2022/08/20 05:30:44;;;;;;;;;;;25.90;88.40;;;;;;5135677;27;20436;-60
2022/08/20 05:33:10;;;;;;;;;;;26.10;88.50;;;;;;5135320;27;19919;-60
2022/08/20 05:35:37;;;;;;;;;;;26.00;88.30;;;;;;5119329;27;19931;-60
2022/08/20 05:38:03;;;;;;;;;;;26.30;88.60;;;;;;5115758;28;19924;-60
2022/08/20 05:40:29;;;;;;;;;;;26.10;88.40;;;;;;5099807;28;19927;-60
2022/08/20 05:42:55;;;;;;;;;;;26.00;88.10;;;;;;5132689;27;19923;-60
2022/08/20 05:45:21;;;;;;;;;;;25.90;87.80;;;;;;5135320;27;20392;-61
2022/08/20 05:47:47;;;;;;;;;;;26.30;88.40;;;;;;5105183;27;19945;-60
2022/08/20 05:50:12;;;;;;;;;;;26.00;87.90;;;;;;5135815;27;20367;-60
2022/08/20 05:52:39;;;;;;;;;;;26.10;87.90;;;;;;5124920;27;19971;-59
2022/08/20 05:55:05;;;;;;;;;;;26.10;87.90;;;;;;5118738;27;19936;-60
2022/08/20 05:57:31;;;;;;;;;;;26.00;87.50;;;;;;5122967;27;20435;-60
2022/08/20 05:59:58;;;;;;;;;;;26.10;87.70;;;;;;5116753;28;20014;-60
2022/08/20 06:05:07;;;;;;;;;;;26.10;86.90;;;;;;5116664;28;20415;-60
2022/08/20 06:07:33;;;;;;;;;;;26.00;87.40;;;;;;5122678;27;19967;-60
2022/08/20 06:09:59;;;;;;;;;;;25.90;87.50;;;;;;5135852;27;19931;-60
2022/08/20 06:12:25;;;;;;;;;;;26.00;87.40;;;;;;5137296;27;19930;-60
2022/08/20 06:14:51;;;;;;;;;;;26.10;86.90;;;;;;5120526;27;19924;-60
2022/08/20 06:17:17;;;;;;;;;;;25.90;87.00;;;;;;5117533;27;19938;-61
2022/08/20 06:19:43;;;;;;;;;;;26.10;87.60;;;;;;5117102;27;19927;-60
2022/08/20 06:22:09;;;;;;;;;;;26.30;87.70;;;;;;5116238;28;19924;-60
2022/08/20 06:24:34;;;;;;;;;;;26.00;87.20;;;;;;5120998;27;19947;-60
2022/08/20 06:27:00;;;;;;;;;;;26.20;87.10;;;;;;5135016;27;19938;-60
2022/08/20 06:29:26;;;;;;;;;;;26.10;87.40;;;;;;5125161;27;19924;-60
2022/08/20 06:31:52;;;;;;;;;;;26.00;87.20;;;;;;5132629;27;19924;-60
2022/08/20 06:34:18;;;;;;;;;;;26.10;87.10;;;;;;5135758;27;20321;-61
2022/08/20 06:36:47;;;;;;;;;;;26.50;87.10;;;;;;5135362;27;19927;-60
2022/08/20 06:39:13;;;;;;;;;;;26.20;86.50;;;;;;5130071;27;20415;-61
2022/08/20 06:41:38;;;;;;;;;;;26.10;85.40;;;;;;5120463;27;20009;-72
2022/08/20 06:44:05;;;;;;;;;;;26.20;84.30;;;;;;5136470;27;19931;-68
2022/08/20 06:46:31;;;;;;;;;;;26.20;83.90;;;;;;5135257;27;19934;-60
2022/08/20 06:48:56;;;;;;;;;;;26.20;83.40;;;;;;5116584;27;20366;-63
2022/08/20 06:51:22;;;;;;;;;;;26.60;83.30;;;;;;5097315;28;19923;-71
2022/08/20 06:53:48;;;;;;;;;;;26.30;83.20;;;;;;5115535;28;19928;-71
2022/08/20 06:56:13;;;;;;;;;;;26.20;82.90;;;;;;5119184;27;19950;-70
2022/08/20 06:58:39;;;;;;;;;;;26.40;83.00;;;;;;5127534;27;19945;-70
2022/08/20 07:01:09;;;;;;;;;;;26.30;82.70;;;;;;5132160;27;19985;-71
2022/08/20 07:03:36;;;;;;;;;;;26.20;81.30;;;;;;5122121;27;19923;-61
2022/08/20 07:06:02;;;;;;;;;;;26.60;82.50;;;;;;5135806;27;20269;-60
2022/08/20 07:08:28;;;;;;;;;;;26.40;82.10;;;;;;5133063;27;19989;-62
2022/08/20 07:10:54;;;;;;;;;;;26.70;82.20;;;;;;5125035;27;19928;-72
2022/08/20 07:13:19;;;;;;;;;;;26.50;81.90;;;;;;5115136;28;19924;-72
2022/08/20 07:15:45;;;;;;;;;;;26.70;81.70;;;;;;5117610;27;19927;-69
2022/08/20 07:18:11;;;;;;;;;;;27.00;81.80;;;;;;5098857;28;19966;-73
2022/08/20 07:20:39;;;;;;;;;;;26.90;81.30;;;;;;5115269;28;19924;-71
2022/08/20 07:23:05;;;;;;;;;;;27.20;81.50;;;;;;5131668;27;19924;-60
2022/08/20 07:25:32;;;;;;;;;;;27.20;81.00;;;;;;5134370;27;20280;-69
2022/08/20 07:28:07;;;;;;;;;;;27.00;80.80;;;;;;5124302;27;19923;-70
2022/08/20 07:33:18;;;;;;;;;;;27.70;79.90;;;;;;5133481;27;20296;-60
2022/08/20 07:35:47;;;;;;;;;;;27.40;79.60;;;;;;5127232;27;19927;-72
2022/08/20 07:38:17;;;;;;;;;;;27.30;79.30;;;;;;5130977;27;19935;-80
2022/08/20 07:40:43;;;;;;;;;;;27.60;80.00;;;;;;5134599;27;19924;-82
2022/08/20 07:43:09;;;;;;;;;;;27.20;79.50;;;;;;5134417;27;19923;-80
2022/08/20 07:45:35;;;;;;;;;;;27.50;79.40;;;;;;5110565;27;19970;-61
2022/08/20 07:48:07;;;;;;;;;;;27.40;79.40;;;;;;5134167;27;20427;-60
2022/08/20 07:50:33;;;;;;;;;;;27.60;77.90;;;;;;5120062;27;19928;-61
2022/08/20 07:52:59;;;;;;;;;;;27.50;79.00;;;;;;5114591;28;20401;-61
2022/08/20 07:55:24;;;;;;;;;;;27.60;79.10;;;;;;5113819;27;19926;-61
2022/08/20 07:57:50;;;;;;;;;;;27.40;78.80;;;;;;5132535;27;20414;-61
2022/08/20 08:00:17;;;;;;;;;;;27.60;78.40;;;;;;5130713;27;19971;-61
2022/08/20 08:02:42;;;;;;;;;;;27.80;78.60;;;;;;5114952;28;19923;-61
2022/08/20 08:05:08;;;;;;;;;;;27.60;78.00;;;;;;5128125;27;19924;-61
2022/08/20 08:07:34;;;;;;;;;;;27.70;78.00;;;;;;5120457;27;19927;-61
2022/08/20 08:10:00;;;;;;;;;;;27.90;77.60;;;;;;5130167;27;19980;-61
2022/08/20 08:12:27;;;;;;;;;;;27.90;77.90;;;;;;5124469;27;19931;-61
2022/08/20 08:14:55;;;;;;;;;;;28.00;77.80;;;;;;5116888;28;19923;-60
2022/08/20 08:17:20;;;;;;;;;;;28.00;77.50;;;;;;5116780;28;20014;-84
2022/08/20 08:19:47;;;;;;;;;;;28.10;77.20;;;;;;5138407;27;19982;-83
2022/08/20 08:22:14;;;;;;;;;;;28.10;77.90;;;;;;5116663;27;19924;-81
2022/08/20 08:24:42;;;;;;;;;;;27.90;77.60;;;;;;5124901;27;19923;-79
2022/08/20 08:27:07;;;;;;;;;;;27.90;77.40;;;;;;5118265;28;19975;-83
2022/08/20 08:29:34;;;;;;;;;;;27.90;77.40;;;;;;5118158;28;19935;-82
2022/08/20 08:32:00;;;;;;;;;;;27.90;77.30;;;;;;5118016;27;19920;-61
2022/08/20 08:34:26;;;;;;;;;;;27.50;76.90;;;;;;5134703;27;19971;-62
2022/08/20 08:36:52;;;;;;;;;;;27.80;77.00;;;;;;5138909;27;19962;-62
2022/08/20 08:39:18;;;;;;;;;;;28.00;77.10;;;;;;5138595;27;20468;-61
2022/08/20 08:41:48;;;;;;;;;;;27.90;76.80;;;;;;5136708;27;19927;-61
2022/08/20 08:44:21;;;;;;;;;;;27.80;75.30;;;;;;5134680;27;20000;-61
2022/08/20 08:46:48;;;;;;;;;;;27.90;75.30;;;;;;5120721;27;20002;-61
2022/08/20 08:49:15;;;;;;;;;;;28.10;76.60;;;;;;5136928;27;20026;-61
2022/08/20 08:51:42;;;;;;;;;;;28.10;76.50;;;;;;5133749;27;19928;-61
2022/08/20 08:54:08;;;;;;;;;;;28.00;76.40;;;;;;5125854;27;20397;-79
2022/08/20 08:56:34;;;;;;;;;;;27.90;75.90;;;;;;5137300;27;19927;-62
2022/08/20 08:59:01;;;;;;;;;;;27.80;76.00;;;;;;5136539;27;19927;-61
2022/08/20 09:01:27;;;;;;;;;;;28.00;76.40;;;;;;5102727;27;20016;-61
2022/08/20 09:03:52;;;;;;;;;;;27.80;75.70;;;;;;5120033;27;19997;-61
2022/08/20 09:06:19;;;;;;;;;;;28.30;75.90;;;;;;5138055;27;19930;-61
2022/08/20 09:08:59;;;;;;;;;;;28.20;76.10;;;;;;5111279;28;20019;-61
2022/08/20 09:11:26;;;;;;;;;;;28.20;74.60;;;;;;5117341;28;19927;-61
2022/08/20 09:13:53;;;;;;;;;;;28.10;75.60;;;;;;5099053;28;20297;-61
2022/08/20 09:16:19;;;;;;;;;;;27.90;75.10;;;;;;5136416;27;20011;-61
2022/08/20 09:18:44;;;;;;;;;;;27.90;75.30;;;;;;5135647;27;19928;-61
2022/08/20 09:21:10;;;;;;;;;;;28.00;74.80;;;;;;5119735;27;20288;-64
2022/08/20 09:23:36;;;;;;;;;;;28.00;75.10;;;;;;5137879;27;20295;-61
2022/08/20 09:26:02;;;;;;;;;;;28.20;75.00;;;;;;5138045;27;20261;-61
2022/08/20 09:28:27;;;;;;;;;;;28.20;74.70;;;;;;5119978;27;19923;-73
2022/08/20 09:30:53;;;;;;;;;;;28.20;74.60;;;;;;5132594;27;19985;-61
2022/08/20 09:33:19;;;;;;;;;;;28.20;75.10;;;;;;5118046;27;19930;-61
2022/08/20 09:35:45;;;;;;;;;;;28.10;74.50;;;;;;5116926;28;19988;-62
2022/08/20 09:38:11;;;;;;;;;;;28.10;75.00;;;;;;5117205;28;19924;-62
2022/08/20 09:40:36;;;;;;;;;;;28.10;74.40;;;;;;5119101;27;19947;-61
2022/08/20 09:43:05;;;;;;;;;;;28.10;74.40;;;;;;5128807;27;19923;-61
2022/08/20 09:45:31;;;;;;;;;;;28.30;73.40;;;;;;5137660;27;19923;-61
2022/08/20 09:47:57;;;;;;;;;;;27.90;74.40;;;;;;5137574;27;20381;-61
2022/08/20 09:50:23;;;;;;;;;;;28.20;74.10;;;;;;5116735;27;19931;-61
2022/08/20 09:52:49;;;;;;;;;;;28.10;74.40;;;;;;5118702;27;19924;-61
2022/08/20 09:55:31;;;;;;;;;;;28.20;74.00;;;;;;5098729;28;20342;-77
2022/08/20 09:57:57;;;;;;;;;;;28.30;73.40;;;;;;5121851;27;19981;-80
2022/08/20 10:00:23;;;;;;;;;;;28.30;74.30;;;;;;5135229;27;20361;-76
2022/08/20 10:02:52;;;;;;;;;;;28.30;74.30;;;;;;5114253;27;19927;-79
2022/08/20 10:05:18;;;;;;;;;;;29.30;74.20;;;;;;5134240;27;19978;-79
2022/08/20 10:07:45;;;;;;;;;;;28.20;74.30;;;;;;5116309;28;19930;-61
2022/08/20 10:10:12;;;;;;;;;;;28.10;74.00;;;;;;5116311;28;19946;-61
2022/08/20 10:12:40;;;;;;;;;;;28.30;74.70;;;;;;5123770;27;19929;-61
2022/08/20 10:15:06;;;;;;;;;;;28.40;74.10;;;;;;5136785;27;19930;-62
2022/08/20 10:17:32;;;;;;;;;;;28.20;74.20;;;;;;5136701;27;19927;-61
2022/08/20 10:19:58;;;;;;;;;;;28.30;74.00;;;;;;5103724;28;20011;-61
2022/08/20 10:22:26;;;;;;;;;;;28.10;73.90;;;;;;5118613;27;20010;-61
2022/08/20 10:24:51;;;;;;;;;;;28.40;74.20;;;;;;5150152;27;19924;-62
2022/08/20 10:27:18;;;;;;;;;;;28.20;73.90;;;;;;5136512;27;19930;-62
2022/08/20 10:29:44;;;;;;;;;;;28.30;72.90;;;;;;5129267;27;19924;-61
2022/08/20 10:32:13;;;;;;;;;;;28.00;72.90;;;;;;5097919;28;19938;-61
2022/08/20 10:34:39;;;;;;;;;;;28.20;74.10;;;;;;5126942;27;19937;-81
2022/08/20 10:37:05;;;;;;;;;;;28.30;73.90;;;;;;5136588;27;19931;-61
2022/08/20 10:39:31;;;;;;;;;;;28.30;73.80;;;;;;5135536;27;20007;-61
2022/08/20 10:41:57;;;;;;;;;;;28.10;73.20;;;;;;5120686;27;19984;-61
2022/08/20 10:44:23;;;;;;;;;;;28.10;73.10;;;;;;5130501;27;19928;-61
2022/08/20 10:46:49;;;;;;;;;;;28.10;73.00;;;;;;5133065;27;19924;-80
2022/08/20 10:49:15;;;;;;;;;;;28.10;73.40;;;;;;5134624;27;19919;-61
2022/08/20 10:51:40;;;;;;;;;;;28.20;73.20;;;;;;5136340;27;19994;-62
2022/08/20 10:54:06;;;;;;;;;;;28.40;73.60;;;;;;5136119;27;20014;-61
2022/08/20 10:56:32;;;;;;;;;;;28.00;73.30;;;;;;5141411;27;19924;-70
2022/08/20 10:58:57;;;;;;;;;;;28.20;73.70;;;;;;5096965;28;19924;-61
2022/08/20 11:01:23;;;;;;;;;;;28.10;73.40;;;;;;5115898;27;19927;-61
2022/08/20 11:03:49;;;;;;;;;;;28.30;73.80;;;;;;5115078;28;20007;-61
2022/08/20 11:06:14;;;;;;;;;;;27.80;73.20;;;;;;5122259;27;20326;-61
2022/08/20 11:08:40;;;;;;;;;;;28.20;73.60;;;;;;5117317;27;20014;-64
2022/08/20 11:11:06;;;;;;;;;;;28.30;73.90;;;;;;5135890;27;19923;-61
2022/08/20 11:13:32;;;;;;;;;;;27.90;73.50;;;;;;5131130;27;20019;-61
2022/08/20 11:15:58;;;;;;;;;;;28.00;73.90;;;;;;5115390;27;20331;-60
2022/08/20 11:18:23;;;;;;;;;;;27.70;73.20;;;;;;5119398;27;19927;-80
2022/08/20 11:20:49;;;;;;;;;;;28.10;73.30;;;;;;5134576;27;19923;-69
2022/08/20 11:23:15;;;;;;;;;;;28.20;73.50;;;;;;5135257;27;19923;-81
2022/08/20 11:25:41;;;;;;;;;;;27.90;73.00;;;;;;5135711;27;20288;-77
2022/08/20 11:28:06;;;;;;;;;;;28.20;72.80;;;;;;5120856;27;19923;-61
2022/08/20 11:30:33;;;;;;;;;;;27.90;72.50;;;;;;5119137;27;19923;-61
2022/08/20 11:32:59;;;;;;;;;;;28.10;72.90;;;;;;5115319;27;19971;-61
2022/08/20 11:35:25;;;;;;;;;;;28.20;72.10;;;;;;5135224;27;19976;-61
2022/08/20 11:37:50;;;;;;;;;;;28.10;72.50;;;;;;5129035;27;20434;-61
2022/08/20 11:40:16;;;;;;;;;;;28.10;72.20;;;;;;5114687;28;19968;-62
2022/08/20 11:42:42;;;;;;;;;;;28.10;72.10;;;;;;5115113;28;19946;-61
2022/08/20 11:45:08;;;;;;;;;;;28.40;72.40;;;;;;5114961;27;20373;-61
2022/08/20 11:47:35;;;;;;;;;;;28.10;71.80;;;;;;5119328;27;20014;-62
2022/08/20 11:50:02;;;;;;;;;;;28.20;72.70;;;;;;5113343;27;20399;-62
2022/08/20 11:52:28;;;;;;;;;;;28.40;73.10;;;;;;5121325;27;19946;-60
2022/08/20 11:54:54;;;;;;;;;;;28.40;72.60;;;;;;5114259;28;19923;-61
2022/08/20 11:57:24;;;;;;;;;;;28.20;73.20;;;;;;5096165;28;20014;-61
2022/08/20 11:59:50;;;;;;;;;;;28.20;73.20;;;;;;5114280;28;20015;-61
2022/08/20 12:02:16;;;;;;;;;;;28.10;73.30;;;;;;5118420;27;19923;-61
2022/08/20 12:04:43;;;;;;;;;;;28.30;72.70;;;;;;5113913;27;21433;-61
2022/08/20 12:07:10;;;;;;;;;;;28.20;72.80;;;;;;5114554;28;19924;-61
2022/08/20 12:09:35;;;;;;;;;;;28.00;73.00;;;;;;5114222;28;19923;-62
2022/08/20 12:12:01;;;;;;;;;;;28.10;72.70;;;;;;5098494;28;19924;-61
2022/08/20 12:14:27;;;;;;;;;;;28.20;72.80;;;;;;5115343;28;20373;-62
2022/08/20 12:16:52;;;;;;;;;;;28.40;73.20;;;;;;5124713;27;19928;-61
2022/08/20 12:19:18;;;;;;;;;;;28.20;73.70;;;;;;5134654;28;19923;-61
2022/08/20 12:21:44;;;;;;;;;;;28.10;72.90;;;;;;5131074;27;19931;-63
2022/08/20 12:24:09;;;;;;;;;;;28.20;72.90;;;;;;5123516;28;19946;-62
2022/08/20 12:26:35;;;;;;;;;;;28.30;74.10;;;;;;5134946;28;19923;-61
2022/08/20 12:29:01;;;;;;;;;;;28.40;74.70;;;;;;5134283;27;19931;-61
2022/08/20 12:31:26;;;;;;;;;;;28.10;73.80;;;;;;5130324;27;19934;-61
2022/08/20 12:33:52;;;;;;;;;;;28.10;74.00;;;;;;5131432;28;20573;-61
2022/08/20 12:36:17;;;;;;;;;;;28.20;73.80;;;;;;5134104;28;19932;-64
2022/08/20 12:38:43;;;;;;;;;;;28.10;73.60;;;;;;5131704;28;19927;-61
2022/08/20 12:41:09;;;;;;;;;;;28.10;73.40;;;;;;5134308;28;19929;-61
2022/08/20 12:43:34;;;;;;;;;;;27.60;72.90;;;;;;5137970;27;19923;-74
2022/08/20 12:46:00;;;;;;;;;;;28.00;73.00;;;;;;5123764;27;19923;-75
2022/08/20 12:48:25;;;;;;;;;;;28.00;73.00;;;;;;5133931;27;19984;-71
2022/08/20 12:50:51;;;;;;;;;;;28.20;73.00;;;;;;5134680;28;19968;-74
2022/08/20 12:53:17;;;;;;;;;;;28.20;73.00;;;;;;5129310;27;20331;-61
2022/08/20 12:55:43;;;;;;;;;;;28.50;73.10;;;;;;5119168;28;20397;-61
2022/08/20 12:58:09;;;;;;;;;;;28.00;72.90;;;;;;5134639;28;19975;-61
2022/08/20 13:00:40;;;;;;;;;;;28.20;73.20;;;;;;5150319;27;19979;-61
2022/08/20 13:03:06;;;;;;;;;;;28.10;71.70;;;;;;5131773;27;19986;-61
2022/08/20 13:05:33;;;;;;;;;;;28.10;72.30;;;;;;5135559;27;20289;-61
2022/08/20 13:07:59;;;;;;;;;;;28.40;73.30;;;;;;5110608;27;20010;-61
2022/08/20 13:10:28;;;;;;;;;;;28.30;72.60;;;;;;5136830;27;20380;-61
2022/08/20 13:12:54;;;;;;;;;;;28.30;72.80;;;;;;5122772;27;19931;-61
2022/08/20 13:15:20;;;;;;;;;;;28.30;72.00;;;;;;5119634;27;19924;-61
2022/08/20 13:17:52;;;;;;;;;;;28.40;72.60;;;;;;5116959;28;20380;-61
2022/08/20 13:20:18;;;;;;;;;;;28.00;71.30;;;;;;5117292;28;19924;-61
2022/08/20 13:22:44;;;;;;;;;;;28.30;72.60;;;;;;5117331;28;20333;-61
2022/08/20 13:25:10;;;;;;;;;;;27.90;73.10;;;;;;5119387;27;20019;-61
2022/08/20 13:27:39;;;;;;;;;;;28.20;73.30;;;;;;5120760;27;19973;-61
2022/08/20 13:30:05;;;;;;;;;;;28.10;72.60;;;;;;5128525;27;19927;-60
2022/08/20 13:32:31;;;;;;;;;;;28.20;73.00;;;;;;5132980;27;19920;-61
2022/08/20 13:34:57;;;;;;;;;;;27.90;73.10;;;;;;5131080;27;19923;-61
2022/08/20 13:37:23;;;;;;;;;;;28.10;73.50;;;;;;5120966;27;19933;-61
2022/08/20 13:39:49;;;;;;;;;;;28.00;74.00;;;;;;5098228;27;19927;-61
2022/08/20 13:42:15;;;;;;;;;;;28.40;74.10;;;;;;5116717;28;20377;-61
2022/08/20 13:44:40;;;;;;;;;;;28.00;73.20;;;;;;5121066;27;19966;-61
2022/08/20 13:47:13;;;;;;;;;;;28.20;73.30;;;;;;5130132;27;19924;-61
2022/08/20 13:49:39;;;;;;;;;;;28.20;72.20;;;;;;5135740;27;20284;-60
2022/08/20 13:52:05;;;;;;;;;;;28.00;73.20;;;;;;5137394;27;19927;-71
2022/08/20 13:54:30;;;;;;;;;;;27.80;73.00;;;;;;5137489;27;20266;-61
2022/08/20 13:57:09;;;;;;;;;;;28.00;73.10;;;;;;5109451;28;20335;-60
2022/08/20 13:59:36;;;;;;;;;;;28.00;72.30;;;;;;5119083;27;19923;-61
2022/08/20 14:02:01;;;;;;;;;;;28.10;73.90;;;;;;5137074;27;19976;-61
2022/08/20 14:04:27;;;;;;;;;;;27.90;73.60;;;;;;5125046;27;19923;-61
2022/08/20 14:06:53;;;;;;;;;;;28.00;73.40;;;;;;5134233;27;19934;-62
2022/08/20 14:09:18;;;;;;;;;;;28.00;73.70;;;;;;5124055;27;19919;-62
2022/08/20 14:11:44;;;;;;;;;;;27.50;73.30;;;;;;5134648;27;19976;-60
2022/08/20 14:14:10;;;;;;;;;;;28.00;73.70;;;;;;5136803;27;19923;-61
2022/08/20 14:16:36;;;;;;;;;;;28.10;73.80;;;;;;5116559;27;19963;-61